Time;durP1;ratioP1;P1;durP2;ratioP2;P2;SDS_P1;SDS_P2;PMS_P1;PMS_P2;Temp;Humidity;BMP_temperature;BMP_pressure;BME280_temperature;BME280_humidity;BME280_pressure;Samples;Min_cycle;Max_cycle;Signal;HPM_P1;HPM_P2
2021/11/28 00:00:44;;;;;;;43.60;23.80;;;;;;;-0.14;86.39;98746.89;88972;1276;86446;-67
2021/11/28 00:02:57;;;;;;;39.50;23.50;;;;;;;-0.19;86.37;98754.14;88957;1272;95047;-69
2021/11/28 00:05:09;;;;;;;42.50;23.00;;;;;;;-0.23;86.43;98760.92;89003;1273;79919;-74
2021/11/28 00:07:30;;;;;;;40.00;22.30;;;;;;;-0.26;86.44;98766.98;88812;1276;81890;-76
2021/11/28 00:09:56;;;;;;;39.70;23.00;;;;;;;-0.27;86.28;98771.33;88968;1272;97918;-73
2021/11/28 00:12:25;;;;;;;40.50;22.30;;;;;;;-0.27;86.50;98771.98;88985;1273;87959;-74
2021/11/28 00:14:36;;;;;;;41.50;23.10;;;;;;;-0.31;86.56;98770.65;88975;1276;92874;-67
2021/11/28 00:16:48;;;;;;;43.60;25.00;;;;;;;-0.31;86.58;98776.20;88962;1272;77475;-69
2021/11/28 00:19:00;;;;;;;41.90;23.90;;;;;;;-0.33;86.47;98777.61;88887;1273;81860;-67
2021/11/28 00:21:10;;;;;;;38.80;23.30;;;;;;;-0.38;86.70;98775.97;88998;1275;99658;-72
2021/11/28 00:23:26;;;;;;;41.90;24.40;;;;;;;-0.45;86.62;98783.95;88971;1275;87682;-70
2021/11/28 00:25:42;;;;;;;37.20;22.80;;;;;;;-0.49;86.57;98788.18;88994;1275;91773;-72
2021/11/28 00:27:55;;;;;;;40.70;24.00;;;;;;;-0.52;86.74;98795.87;88969;1276;79331;-72
2021/11/28 00:30:11;;;;;;;37.90;21.90;;;;;;;-0.52;86.34;98796.23;88962;1276;80966;-66
2021/11/28 00:32:19;;;;;;;34.20;21.30;;;;;;;-0.49;86.86;98799.63;89021;1276;98531;-68
2021/11/28 00:34:30;;;;;;;43.20;23.80;;;;;;;-0.44;86.69;98805.84;88993;1273;89003;-69
2021/11/28 00:36:43;;;;;;;41.20;24.20;;;;;;;-0.41;86.89;98805.37;89001;1275;94745;-70
2021/11/28 00:38:54;;;;;;;41.10;23.40;;;;;;;-0.39;86.93;98798.95;88967;1276;78305;-68
2021/11/28 00:41:04;;;;;;;45.90;26.30;;;;;;;-0.36;86.81;98793.98;89014;1272;81838;-71
2021/11/28 00:43:18;;;;;;;49.10;27.30;;;;;;;-0.32;87.06;98797.84;89010;1276;98793;-76
2021/11/28 00:45:28;;;;;;;44.40;24.80;;;;;;;-0.23;86.83;98795.23;88974;1273;89047;-76
2021/11/28 00:47:39;;;;;;;47.40;26.90;;;;;;;-0.17;87.02;98795.22;88956;1273;95917;-74
2021/11/28 00:50:03;;;;;;;46.40;25.60;;;;;;;-0.12;87.03;98797.13;88974;1273;79478;-74
2021/11/28 00:52:14;;;;;;;44.40;25.30;;;;;;;-0.03;87.03;98796.36;89009;1276;82955;-63
2021/11/28 00:54:26;;;;;;;46.10;25.50;;;;;;;0.05;87.11;98796.02;88980;1276;97459;-64
2021/11/28 00:56:36;;;;;;;44.70;25.30;;;;;;;0.13;87.36;98791.48;88953;1276;88901;-62
2021/11/28 00:58:47;;;;;;;45.00;25.40;;;;;;;0.17;87.17;98794.23;88961;1276;94526;-64
2021/11/28 01:01:02;;;;;;;48.80;27.20;;;;;;;0.21;87.48;98794.15;89006;1275;77504;-76
2021/11/28 01:03:12;;;;;;;46.70;28.30;;;;;;;0.28;87.28;98785.37;88999;1276;80279;-78
2021/11/28 01:05:24;;;;;;;47.10;28.50;;;;;;;0.36;87.35;98779.23;88967;1272;99038;-78
2021/11/28 01:07:38;;;;;;;50.80;27.60;;;;;;;0.42;87.29;98776.95;89007;1276;89212;-81
2021/11/28 01:09:48;;;;;;;49.40;27.20;;;;;;;0.46;87.27;98782.46;89000;1276;95860;-77
2021/11/28 01:12:01;;;;;;;46.40;27.20;;;;;;;0.50;87.22;98775.02;88982;1276;79164;-76
2021/11/28 01:14:14;;;;;;;47.40;27.10;;;;;;;0.50;87.17;98771.08;88959;1276;82231;-77
2021/11/28 01:16:24;;;;;;;46.10;26.80;;;;;;;0.51;87.30;98769.23;88955;1273;98515;-61
2021/11/28 01:18:33;;;;;;;45.40;25.70;;;;;;;0.53;87.25;98770.08;89005;1273;88435;-62
2021/11/28 01:20:46;;;;;;;45.60;26.20;;;;;;;0.57;87.28;98768.89;88984;1275;93844;-62
2021/11/28 01:23:11;;;;;;;44.30;25.90;;;;;;;0.65;87.21;98765.80;88957;1276;77569;-62
2021/11/28 01:25:28;;;;;;;45.20;28.50;;;;;;;0.70;87.19;98768.05;88993;1273;81966;-74
2021/11/28 01:27:45;;;;;;;49.90;28.80;;;;;;;0.76;87.26;98772.41;89001;1272;98407;-76
2021/11/28 01:29:57;;;;;;;46.90;29.60;;;;;;;0.75;87.26;98772.34;88827;1276;88282;-76
2021/11/28 01:32:13;;;;;;;48.20;27.80;;;;;;;0.78;87.31;98768.75;88969;1276;94431;-64
2021/11/28 01:34:24;;;;;;;51.10;28.30;;;;;;;0.81;87.24;98765.59;88984;1276;80054;-62
2021/11/28 01:36:39;;;;;;;52.20;29.50;;;;;;;0.83;87.26;98764.86;89017;1273;79642;-62
2021/11/28 01:38:48;;;;;;;46.80;27.00;;;;;;;0.82;87.30;98767.11;88956;1276;99814;-64
2021/11/28 01:40:58;;;;;;;46.10;27.30;;;;;;;0.85;87.38;98761.14;89027;1276;87484;-73
2021/11/28 01:43:12;;;;;;;46.40;27.50;;;;;;;0.90;87.46;98765.18;88969;1273;93239;-73
2021/11/28 01:45:25;;;;;;;48.00;28.40;;;;;;;0.97;87.58;98768.64;88977;1276;79274;-74
2021/11/28 01:47:38;;;;;;;47.50;28.70;;;;;;;1.01;87.62;98761.77;88868;1277;81723;-62
2021/11/28 01:49:47;;;;;;;47.10;28.70;;;;;;;1.07;87.42;98759.11;88980;1276;96896;-63
2021/11/28 01:51:57;;;;;;;45.10;28.20;;;;;;;1.09;87.47;98757.92;89005;1273;88690;-75
2021/11/28 01:54:13;;;;;;;43.70;26.00;;;;;;;1.07;87.41;98757.89;89006;1276;92824;-75
2021/11/28 01:56:27;;;;;;;40.10;25.30;;;;;;;1.07;87.21;98754.89;88982;1273;77370;-61
2021/11/28 01:58:40;;;;;;;44.10;26.50;;;;;;;1.01;87.33;98759.64;89005;1273;82557;-64
2021/11/28 02:00:53;;;;;;;45.90;26.70;;;;;;;1.01;87.39;98759.82;89011;1276;97559;-63
2021/11/28 02:03:04;;;;;;;45.30;26.20;;;;;;;1.00;87.28;98764.55;88992;1273;88980;-63
2021/11/28 02:05:17;;;;;;;44.40;27.30;;;;;;;0.99;87.18;98761.64;88975;1273;92351;-72
2021/11/28 02:07:31;;;;;;;49.90;27.10;;;;;;;0.98;87.18;98758.37;88973;1276;80033;-64
2021/11/28 02:09:41;;;;;;;;;;;;;;;1.00;87.46;98757.39;89005;1273;81379;-61
2021/11/28 02:11:50;;;;;;;47.90;27.20;;;;;;;1.06;87.38;98755.33;88987;1276;96531;-81
2021/11/28 02:14:00;;;;;;;41.80;26.20;;;;;;;1.07;87.41;98755.27;88801;1273;88489;-75
2021/11/28 02:16:11;;;;;;;44.40;26.60;;;;;;;1.11;87.26;98759.20;89005;1276;94481;-69
2021/11/28 02:18:22;;;;;;;46.60;27.10;;;;;;;1.15;87.29;98755.77;88974;1276;80226;-70
2021/11/28 02:20:35;;;;;;;49.20;30.20;;;;;;;1.22;87.32;98748.61;89002;1276;81726;-72
2021/11/28 02:22:45;;;;;;;45.20;28.50;;;;;;;1.26;87.20;98752.05;88982;1272;96424;-73
2021/11/28 02:24:55;;;;;;;52.50;31.60;;;;;;;1.24;87.33;98753.88;88986;1273;89385;-73
2021/11/28 02:27:09;;;;;;;47.80;29.90;;;;;;;1.28;87.23;98750.79;88987;1273;94865;-62
2021/11/28 02:29:19;;;;;;;50.20;29.40;;;;;;;1.30;87.08;98751.24;88980;1273;78927;-68
2021/11/28 02:31:32;;;;;;;48.00;28.10;;;;;;;1.29;87.12;98754.08;88961;1273;80242;-69
2021/11/28 02:33:42;;;;;;;49.20;27.50;;;;;;;1.25;87.30;98756.27;88970;1273;99065;-63
2021/11/28 02:35:51;;;;;;;49.70;28.70;;;;;;;1.27;87.29;98752.71;89006;1273;87218;-63
2021/11/28 02:38:02;;;;;;;41.60;26.60;;;;;;;1.28;87.34;98747.63;88993;1273;95242;-69
2021/11/28 02:40:17;;;;;;;45.50;26.40;;;;;;;1.27;87.31;98744.39;88980;1273;80237;-69
2021/11/28 02:42:27;;;;;;;40.70;24.50;;;;;;;1.26;87.23;98744.13;88997;1273;82910;-65
2021/11/28 02:44:39;;;;;;;42.00;25.90;;;;;;;1.25;87.40;98746.17;88976;1273;98752;-66
2021/11/28 02:46:49;;;;;;;43.30;27.10;;;;;;;1.29;87.44;98744.34;88994;1276;89323;-68
2021/11/28 02:49:01;;;;;;;48.50;28.50;;;;;;;1.32;87.51;98747.64;88953;1273;93945;-70
2021/11/28 02:51:10;;;;;;;47.00;28.40;;;;;;;1.31;87.40;98744.96;89001;1276;77785;-68
2021/11/28 02:53:20;;;;;;;48.90;30.10;;;;;;;1.29;87.37;98746.02;88971;1276;80287;-67
2021/11/28 02:55:39;;;;;;;47.50;28.70;;;;;;;1.29;87.39;98743.07;88983;1273;98834;-67
2021/11/28 02:57:51;;;;;;;45.50;29.40;;;;;;;1.30;87.32;98741.20;88969;1276;88482;-68
2021/11/28 03:00:07;;;;;;;50.90;30.00;;;;;;;1.28;87.24;98737.28;88956;1275;94620;-67
2021/11/28 03:02:17;;;;;;;46.20;28.30;;;;;;;1.33;87.36;98733.02;88958;1273;80798;-65
2021/11/28 03:04:26;;;;;;;49.70;30.80;;;;;;;1.36;87.58;98733.08;88906;1274;83027;-67
2021/11/28 03:06:36;;;;;;;47.40;28.80;;;;;;;1.37;87.31;98729.90;88935;1272;99645;-70
2021/11/28 03:08:45;;;;;;;47.70;28.90;;;;;;;1.42;87.32;98733.41;88819;1276;87286;-70
2021/11/28 03:10:58;;;;;;;47.30;29.20;;;;;;;1.44;87.34;98738.66;88826;1273;94976;-69
2021/11/28 03:13:10;;;;;;;48.30;30.10;;;;;;;1.42;87.41;98747.01;88825;1273;79793;-70
2021/11/28 03:15:20;;;;;;;51.30;31.10;;;;;;;1.47;87.36;98746.39;88891;1273;79676;-68
2021/11/28 03:17:28;;;;;;;47.90;30.00;;;;;;;1.40;87.22;98744.76;88862;1276;98526;-66
2021/11/28 03:19:42;;;;;;;44.50;26.20;;;;;;;1.33;87.34;98749.99;88833;1276;88471;-66
2021/11/28 03:21:51;;;;;;;50.10;30.10;;;;;;;1.35;87.34;98746.66;88827;1276;95402;-67
2021/11/28 03:24:06;;;;;;;48.30;29.70;;;;;;;1.38;87.31;98744.13;88827;1273;80848;-67
2021/11/28 03:26:19;;;;;;;52.00;30.00;;;;;;;1.38;87.30;98739.19;88845;1273;80352;-70
2021/11/28 03:28:28;;;;;;;53.20;33.20;;;;;;;1.36;87.40;98739.29;88854;1273;97868;-68
2021/11/28 03:30:40;;;;;;;51.70;30.40;;;;;;;1.39;87.40;98744.56;88850;1274;88924;-65
2021/11/28 03:32:52;;;;;;;53.70;30.40;;;;;;;1.40;87.49;98746.77;88834;1276;95267;-62
2021/11/28 03:35:01;;;;;;;47.20;30.20;;;;;;;1.34;87.44;98749.90;88860;1276;77789;-61
2021/11/28 03:37:10;;;;;;;48.70;29.30;;;;;;;1.37;87.44;98756.17;88823;1276;82696;-59
2021/11/28 03:39:23;;;;;;;49.70;30.00;;;;;;;1.41;87.44;98761.94;88847;1276;98074;-62
2021/11/28 03:41:34;;;;;;;43.30;27.50;;;;;;;1.38;87.49;98761.92;88838;1275;87834;-67
2021/11/28 03:43:47;;;;;;;47.40;29.30;;;;;;;1.36;87.36;98764.92;88847;1274;92898;-67
2021/11/28 03:45:56;;;;;;;47.70;28.50;;;;;;;1.35;87.34;98769.80;88835;1275;80222;-61
2021/11/28 03:48:06;;;;;;;53.60;30.30;;;;;;;1.34;87.35;98770.45;88851;1276;83001;-61
2021/11/28 03:50:16;;;;;;;52.80;30.10;;;;;;;1.37;87.35;98767.55;88836;1273;98139;-61
2021/11/28 03:52:28;;;;;;;51.00;30.50;;;;;;;1.41;87.36;98760.44;88836;1273;88589;-61
2021/11/28 03:54:39;;;;;;;48.40;28.70;;;;;;;1.43;87.45;98762.05;88818;1273;92763;-61
2021/11/28 03:56:48;;;;;;;48.30;28.60;;;;;;;1.44;87.31;98766.45;88790;1273;80480;-61
2021/11/28 03:58:57;;;;;;;48.70;29.40;;;;;;;1.47;87.63;98766.32;88839;1276;83167;-61
2021/11/28 04:01:13;;;;;;;48.90;29.80;;;;;;;1.52;87.57;98760.28;88846;1273;96926;-61
2021/11/28 04:03:22;;;;;;;48.70;30.40;;;;;;;1.58;87.36;98761.84;88850;1273;88819;-61
2021/11/28 04:05:32;;;;;;;53.40;31.20;;;;;;;1.65;87.39;98763.35;88841;1273;93507;-62
2021/11/28 04:07:42;;;;;;;48.60;30.60;;;;;;;1.68;87.44;98766.90;88832;1275;77308;-60
2021/11/28 04:09:51;;;;;;;49.80;30.70;;;;;;;1.66;87.36;98763.16;88847;1275;83046;-61
2021/11/28 04:12:00;;;;;;;50.00;30.30;;;;;;;1.62;87.31;98757.95;88822;1276;96380;-62
2021/11/28 04:14:10;;;;;;;51.50;30.90;;;;;;;1.64;87.32;98752.88;88837;1276;89022;-61
2021/11/28 04:16:19;;;;;;;49.00;29.90;;;;;;;1.66;87.16;98756.53;88809;1273;93871;-65
2021/11/28 04:18:31;;;;;;;49.90;30.30;;;;;;;1.68;87.21;98760.91;88842;1274;78579;-65
2021/11/28 04:20:42;;;;;;;47.60;28.60;;;;;;;1.69;87.32;98757.64;88877;1276;81828;-64
2021/11/28 04:22:51;;;;;;;47.50;29.10;;;;;;;1.72;87.28;98748.90;88848;1276;99172;-65
2021/11/28 04:25:00;;;;;;;47.10;28.40;;;;;;;1.78;87.43;98749.55;88863;1275;87862;-66
2021/11/28 04:27:13;;;;;;;49.60;29.30;;;;;;;1.76;87.28;98752.59;88830;1273;93514;-60
2021/11/28 04:29:22;;;;;;;51.50;31.00;;;;;;;1.74;87.24;98753.29;88856;1274;78489;-61
2021/11/28 04:31:32;;;;;;;56.50;34.40;;;;;;;1.74;87.22;98753.30;88872;1276;80911;-66
2021/11/28 04:33:44;;;;;;;121.50;61.00;;;;;;;1.76;87.13;98753.08;88835;1276;98778;-64
2021/11/28 04:35:56;;;;;;;79.40;40.60;;;;;;;1.76;87.16;98744.36;86596;1273;3013185;-68
2021/11/28 04:38:08;;;;;;;79.10;42.00;;;;;;;1.73;86.98;98746.55;88830;1276;95067;-68
2021/11/28 04:40:19;;;;;;;57.70;33.30;;;;;;;1.66;86.92;98748.17;88864;1273;78707;-69
2021/11/28 04:42:30;;;;;;;54.40;30.60;;;;;;;1.62;87.02;98750.98;88832;1275;83633;-61
2021/11/28 04:44:39;;;;;;;54.90;30.40;;;;;;;1.53;86.91;98754.13;88828;1273;98751;-61
2021/11/28 04:46:48;;;;;;;51.00;27.50;;;;;;;1.44;86.81;98758.94;88859;1275;88683;-61
2021/11/28 04:49:02;;;;;;;45.50;28.50;;;;;;;1.35;86.90;98762.09;88815;1273;95956;-63
2021/11/28 04:51:12;;;;;;;45.10;27.00;;;;;;;1.27;86.96;98759.60;88836;1273;78435;-62
2021/11/28 04:53:21;;;;;;;44.60;26.40;;;;;;;1.21;86.91;98754.96;88843;1274;80272;-62
2021/11/28 04:55:34;;;;;;;41.90;26.60;;;;;;;1.12;86.90;98750.99;88817;1276;98409;-62
2021/11/28 04:57:46;;;;;;;44.10;27.60;;;;;;;1.04;86.74;98751.87;88853;1273;87813;-63
2021/11/28 04:59:56;;;;;;;44.60;28.30;;;;;;;0.93;86.74;98746.94;88861;1275;94261;-60
2021/11/28 05:02:06;;;;;;;47.50;27.30;;;;;;;0.88;86.88;98749.81;88819;1273;79266;-62
2021/11/28 05:04:15;;;;;;;51.40;28.00;;;;;;;0.80;86.85;98753.00;88868;1273;79688;-61
2021/11/28 05:06:25;;;;;;;44.10;26.70;;;;;;;0.76;86.75;98756.60;88858;1273;97791;-62
2021/11/28 05:08:38;;;;;;;42.80;25.80;;;;;;;0.71;86.84;98754.70;88834;1273;87952;-62
2021/11/28 05:10:47;;;;;;;45.30;26.10;;;;;;;0.67;87.04;98757.84;84343;1273;6023792;-62
2021/11/28 05:12:56;;;;;;;42.50;25.90;;;;;;;0.68;87.13;98762.84;88836;1273;78805;-62
2021/11/28 05:15:11;;;;;;;39.50;25.10;;;;;;;0.64;87.05;98764.64;88858;1274;82846;-60
2021/11/28 05:17:20;;;;;;;43.00;27.00;;;;;;;0.64;87.19;98766.46;88831;1273;97344;-71
2021/11/28 05:19:32;;;;;;;43.50;25.90;;;;;;;0.61;87.16;98772.02;88859;1273;86864;-71
2021/11/28 05:21:42;;;;;;;41.30;26.50;;;;;;;0.58;87.19;98773.27;88853;1273;95176;-62
2021/11/28 05:23:51;;;;;;;40.90;26.80;;;;;;;0.54;87.35;98777.92;88879;1273;76849;-62
2021/11/28 05:26:01;;;;;;;43.20;25.90;;;;;;;0.51;87.37;98781.50;88855;1272;81489;-64
2021/11/28 05:28:12;;;;;;;43.00;26.40;;;;;;;0.49;87.19;98781.38;88850;1273;99082;-63
2021/11/28 05:30:24;;;;;;;43.80;27.80;;;;;;;0.45;87.04;98789.01;88865;1273;87779;-62
2021/11/28 05:32:33;;;;;;;43.30;25.70;;;;;;;0.45;87.36;98792.86;88833;1273;94259;-62
2021/11/28 05:34:42;;;;;;;47.00;26.40;;;;;;;0.47;87.47;98792.33;88829;1273;80236;-63
2021/11/28 05:36:51;;;;;;;39.80;25.70;;;;;;;0.51;87.48;98789.74;88864;1276;82702;-68
2021/11/28 05:39:04;;;;;;;42.40;25.90;;;;;;;0.63;87.61;98785.34;88848;1275;99021;-70
2021/11/28 05:41:13;;;;;;;44.60;27.10;;;;;;;0.70;87.58;98782.41;88887;1272;89044;-61
2021/11/28 05:43:22;;;;;;;45.80;28.00;;;;;;;0.78;87.55;98776.42;88816;1274;95560;-60
2021/11/28 05:45:32;;;;;;;43.90;26.90;;;;;;;0.83;87.69;98781.13;88821;1272;77509;-62
2021/11/28 05:47:41;;;;;;;41.60;26.20;;;;;;;0.86;87.51;98774.65;88854;1273;82821;-72
2021/11/28 05:49:53;;;;;;;44.40;27.70;;;;;;;0.86;87.61;98773.42;88809;1276;99310;-67
2021/11/28 05:52:03;;;;;;;47.20;27.50;;;;;;;0.85;87.64;98767.52;88842;1273;86586;-63
2021/11/28 05:54:12;;;;;;;44.50;25.80;;;;;;;0.81;87.35;98766.83;88847;1272;93864;-64
2021/11/28 05:56:21;;;;;;;45.70;27.20;;;;;;;0.80;87.44;98767.29;88830;1273;77044;-69
2021/11/28 05:58:34;;;;;;;45.30;26.10;;;;;;;0.77;87.39;98772.27;88847;1273;80145;-69
2021/11/28 06:00:43;;;;;;;46.20;26.10;;;;;;;0.68;87.36;98766.49;88806;1272;97309;-62
2021/11/28 06:02:52;;;;;;;47.20;28.40;;;;;;;0.62;87.54;98758.86;88848;1272;88724;-61
2021/11/28 06:05:02;;;;;;;45.10;27.20;;;;;;;0.58;87.52;98751.63;88855;1272;95449;-63
2021/11/28 06:07:14;;;;;;;49.40;28.10;;;;;;;0.58;87.28;98751.25;88793;1275;81240;-61
2021/11/28 06:09:24;;;;;;;42.40;27.10;;;;;;;0.64;87.48;98759.34;88852;1277;81406;-62
2021/11/28 06:11:33;;;;;;;43.50;26.90;;;;;;;0.69;87.45;98762.48;88806;1273;97795;-62
2021/11/28 06:13:42;;;;;;;43.60;26.90;;;;;;;0.71;87.57;98764.89;88858;1274;87423;-61
2021/11/28 06:15:51;;;;;;;47.30;28.50;;;;;;;0.74;87.72;98762.88;88836;1273;95555;-60
2021/11/28 06:18:00;;;;;;;43.20;26.40;;;;;;;0.72;87.44;98763.21;88860;1273;76824;-61
2021/11/28 06:20:11;;;;;;;47.50;29.40;;;;;;;0.68;87.81;98760.90;88844;1276;80442;-63
2021/11/28 06:22:24;;;;;;;44.30;28.00;;;;;;;0.68;87.59;98763.15;88837;1274;96972;-70
2021/11/28 06:24:33;;;;;;;46.40;27.20;;;;;;;0.63;87.53;98761.75;88854;1275;88861;-69
2021/11/28 06:26:42;;;;;;;45.80;27.30;;;;;;;0.58;87.53;98768.66;88842;1272;93173;-68
2021/11/28 06:28:54;;;;;;;48.80;28.60;;;;;;;0.50;87.53;98771.08;88847;1272;80296;-69
2021/11/28 06:31:04;;;;;;;41.30;25.60;;;;;;;0.47;87.60;98781.70;88844;1273;82555;-69
2021/11/28 06:33:13;;;;;;;43.80;25.90;;;;;;;0.47;87.48;98786.61;88846;1273;98464;-69
2021/11/28 06:35:22;;;;;;;45.20;26.20;;;;;;;0.43;87.63;98789.83;88811;1273;89475;-70
2021/11/28 06:37:32;;;;;;;42.60;26.40;;;;;;;0.43;87.60;98796.52;88836;1273;94259;-68
2021/11/28 06:39:41;;;;;;;39.90;24.90;;;;;;;0.44;87.67;98801.29;88859;1276;77089;-70
2021/11/28 06:41:50;;;;;;;39.40;25.10;;;;;;;0.46;87.59;98801.70;88846;1276;79860;-70
2021/11/28 06:44:00;;;;;;;39.90;23.60;;;;;;;0.47;87.53;98805.21;88861;1273;97934;-70
2021/11/28 06:46:09;;;;;;;40.80;25.20;;;;;;;0.47;87.46;98807.96;88868;1273;87139;-61
2021/11/28 06:48:21;;;;;;;42.60;25.10;;;;;;;0.40;87.53;98806.80;88864;1275;94336;-61
2021/11/28 06:50:30;;;;;;;39.10;25.00;;;;;;;0.35;87.51;98810.98;88853;1275;76413;-61
2021/11/28 06:52:42;;;;;;;43.00;24.50;;;;;;;0.32;87.39;98812.79;88848;1273;79972;-62
2021/11/28 06:54:52;;;;;;;42.00;25.20;;;;;;;0.33;87.52;98810.33;88845;1273;98406;-61
2021/11/28 06:57:04;;;;;;;42.60;25.90;;;;;;;0.29;87.21;98815.67;88831;1273;88451;-62
2021/11/28 06:59:16;;;;;;;40.90;24.90;;;;;;;0.32;87.28;98818.94;88848;1273;92989;-62
2021/11/28 07:01:28;;;;;;;42.50;26.40;;;;;;;0.35;87.46;98823.55;88807;1273;80028;-70
2021/11/28 07:03:37;;;;;;;47.60;25.80;;;;;;;0.31;87.39;98826.00;88830;1273;80662;-72
2021/11/28 07:05:51;;;;;;;45.60;25.10;;;;;;;0.30;87.51;98821.31;88815;1275;96209;-68
2021/11/28 07:08:00;;;;;;;41.10;25.70;;;;;;;0.31;87.53;98817.66;88867;1275;89267;-68
2021/11/28 07:10:10;;;;;;;43.00;26.50;;;;;;;0.34;87.47;98809.48;88859;1276;94507;-70
2021/11/28 07:12:20;;;;;;;45.60;27.30;;;;;;;0.42;87.35;98805.83;88880;1272;77168;-62
2021/11/28 07:14:32;;;;;;;48.40;28.90;;;;;;;0.48;87.32;98807.81;88894;1273;83565;-61
2021/11/28 07:16:41;;;;;;;45.70;29.20;;;;;;;0.46;87.31;98806.44;88840;1275;97814;-69
2021/11/28 07:18:50;;;;;;;49.10;31.90;;;;;;;0.44;87.47;98803.41;88871;1273;88206;-70
2021/11/28 07:21:03;;;;;;;44.20;28.20;;;;;;;0.49;87.45;98798.11;88814;1272;95046;-69
2021/11/28 07:23:12;;;;;;;49.70;30.40;;;;;;;0.54;87.35;98804.29;88848;1273;79509;-70
2021/11/28 07:25:24;;;;;;;46.80;27.90;;;;;;;0.56;87.45;98805.18;88817;1276;82540;-71
2021/11/28 07:27:34;;;;;;;40.10;25.00;;;;;;;0.59;87.67;98801.39;88885;1275;98621;-71
2021/11/28 07:29:46;;;;;;;46.30;27.30;;;;;;;0.62;87.52;98799.61;88866;1275;87129;-71
2021/11/28 07:31:55;;;;;;;42.20;25.40;;;;;;;0.65;87.57;98797.85;88885;1276;94980;-70
2021/11/28 07:34:05;;;;;;;40.20;25.10;;;;;;;0.77;87.64;98796.18;88830;1274;80460;-71
2021/11/28 07:36:14;;;;;;;40.70;24.20;;;;;;;0.81;87.57;98799.52;88844;1273;80820;-72
2021/11/28 07:38:26;;;;;;;40.20;25.80;;;;;;;0.90;87.74;98802.23;88857;1272;97378;-71
2021/11/28 07:40:36;;;;;;;41.80;25.50;;;;;;;0.98;87.62;98797.70;88878;1273;87767;-71
2021/11/28 07:42:48;;;;;;;44.30;27.00;;;;;;;1.05;87.60;98794.95;88828;1273;95645;-72
2021/11/28 07:44:57;;;;;;;42.20;25.60;;;;;;;1.06;87.65;98796.14;88898;1273;76711;-72
2021/11/28 07:47:08;;;;;;;40.90;26.00;;;;;;;1.06;87.70;98798.73;88841;1273;82333;-68
2021/11/28 07:49:21;;;;;;;43.20;25.10;;;;;;;1.08;87.80;98802.52;88859;1277;97997;-67
2021/11/28 07:51:31;;;;;;;40.90;24.10;;;;;;;1.13;87.64;98807.06;88903;1273;88688;-70
2021/11/28 07:53:41;;;;;;;44.30;25.50;;;;;;;1.21;87.57;98813.13;88828;1273;94997;-70
2021/11/28 07:55:51;;;;;;;41.70;23.90;;;;;;;1.26;87.59;98816.81;88822;1273;79642;-69
2021/11/28 07:58:04;;;;;;;41.20;24.20;;;;;;;1.31;87.62;98809.19;88843;1272;81299;-71
2021/11/28 08:00:13;;;;;;;;;;;;;;;1.37;87.78;98804.88;88875;1273;97026;-68
2021/11/28 08:02:22;;;;;;;42.70;26.00;;;;;;;1.51;87.87;98801.95;88844;1275;86939;-60
2021/11/28 08:04:32;;;;;;;43.40;27.00;;;;;;;1.61;87.50;98805.91;88860;1273;93788;-63
2021/11/28 08:06:41;;;;;;;46.30;29.40;;;;;;;1.72;87.29;98808.23;88876;1273;78351;-63
2021/11/28 08:08:51;;;;;;;58.70;35.90;;;;;;;1.81;87.31;98804.21;88865;1273;79752;-62
2021/11/28 08:11:05;;;;;;;58.10;36.40;;;;;;;1.85;87.08;98799.63;88870;1273;98944;-72
2021/11/28 08:13:14;;;;;;;53.90;34.70;;;;;;;1.79;86.80;98794.46;88870;1275;87439;-72
2021/11/28 08:15:23;;;;;;;52.50;34.70;;;;;;;1.72;87.02;98799.65;88840;1272;93021;-72
2021/11/28 08:17:37;;;;;;;57.60;37.80;;;;;;;1.74;87.16;98804.11;88866;1272;77868;-62
2021/11/28 08:19:50;;;;;;;55.20;36.10;;;;;;;1.78;87.10;98804.48;88823;1273;81285;-62
2021/11/28 08:22:02;;;;;;;52.80;33.10;;;;;;;1.85;86.66;98800.92;88876;1276;98459;-63
2021/11/28 08:24:14;;;;;;;48.80;32.70;;;;;;;1.85;86.63;98795.77;88850;1275;87979;-64
2021/11/28 08:26:23;;;;;;;47.70;29.60;;;;;;;1.91;86.40;98795.05;88879;1273;94325;-69
2021/11/28 08:28:32;;;;;;;48.30;30.20;;;;;;;1.93;86.37;98791.84;88854;1273;77984;-69
2021/11/28 08:30:42;;;;;;;52.10;32.90;;;;;;;1.98;86.53;98793.95;88890;1275;81169;-61
2021/11/28 08:32:52;;;;;;;50.20;32.70;;;;;;;2.13;86.83;98790.27;88880;1276;96982;-60
2021/11/28 08:35:01;;;;;;;47.60;32.10;;;;;;;2.30;86.55;98788.44;88874;1273;87251;-61
2021/11/28 08:37:10;;;;;;;49.00;30.30;;;;;;;2.43;86.50;98790.64;88849;1273;94699;-64
2021/11/28 08:39:23;;;;;;;44.70;30.40;;;;;;;2.50;86.61;98787.30;88850;1273;77163;-65
2021/11/28 08:41:36;;;;;;;46.10;30.90;;;;;;;2.63;86.69;98787.06;88853;1273;81804;-67
2021/11/28 08:43:49;;;;;;;44.40;30.80;;;;;;;2.59;86.47;98790.88;88859;1273;98075;-66
2021/11/28 08:45:59;;;;;;;48.20;30.60;;;;;;;2.53;86.32;98791.08;88896;1273;88826;-65
2021/11/28 08:48:11;;;;;;;49.00;30.20;;;;;;;2.51;86.37;98798.02;88858;1273;92450;-65
2021/11/28 08:50:21;;;;;;;45.60;30.40;;;;;;;2.51;86.33;98803.05;88869;1272;79092;-64
2021/11/28 08:52:33;;;;;;;42.80;28.30;;;;;;;2.59;86.27;98803.33;88874;1273;81959;-65
2021/11/28 08:54:42;;;;;;;39.00;25.60;;;;;;;2.79;86.41;98802.70;88838;1273;98346;-66
2021/11/28 08:56:54;;;;;;;39.20;27.10;;;;;;;3.02;86.21;98798.94;88894;1273;89069;-62
2021/11/28 08:59:07;;;;;;;40.50;26.20;;;;;;;3.08;85.80;98802.66;88867;1273;94861;-62
2021/11/28 09:01:19;;;;;;;41.40;27.60;;;;;;;3.11;85.86;98807.80;88888;1273;77415;-64
2021/11/28 09:03:28;;;;;;;36.50;26.10;;;;;;;3.39;85.92;98810.33;88880;1273;81148;-67
2021/11/28 09:05:40;;;;;;;40.60;27.40;;;;;;;3.74;85.79;98808.80;88878;1274;99331;-65
2021/11/28 09:07:50;;;;;;;40.40;27.30;;;;;;;3.91;85.37;98806.30;88894;1273;88471;-65
2021/11/28 09:10:00;;;;;;;39.60;25.30;;;;;;;4.02;85.09;98806.39;88859;1273;93799;-67
2021/11/28 09:12:11;;;;;;;37.50;27.40;;;;;;;4.26;84.69;98805.02;88911;1273;76713;-66
2021/11/28 09:14:20;;;;;;;41.90;28.00;;;;;;;4.50;84.58;98799.17;88867;1272;82331;-66
2021/11/28 09:16:29;;;;;;;38.40;27.00;;;;;;;5.04;84.73;98796.14;88891;1273;99149;-61
2021/11/28 09:18:45;;;;;;;50.20;34.90;;;;;;;5.65;84.50;98794.24;88906;1276;88562;-61
2021/11/28 09:20:58;;;;;;;47.40;34.70;;;;;;;6.26;84.79;98787.87;88848;1272;95145;-64
2021/11/28 09:25:37;;;;;;;50.80;38.40;;;;;;;7.18;83.58;98788.40;88873;1275;81533;-67
2021/11/28 09:27:53;;;;;;;52.90;38.10;;;;;;;7.51;82.89;98787.59;88885;1275;99424;-64
2021/11/28 09:30:05;;;;;;;51.20;36.80;;;;;;;7.59;82.25;98782.04;88902;1273;88941;-64
2021/11/28 09:32:16;;;;;;;51.30;38.40;;;;;;;7.66;81.73;98782.15;88909;1272;95374;-64
2021/11/28 09:34:26;;;;;;;45.80;36.60;;;;;;;7.89;81.27;98779.06;88884;1272;78905;-66
2021/11/28 09:36:39;;;;;;;48.40;35.20;;;;;;;8.09;81.22;98779.32;88873;1272;81816;-63
2021/11/28 09:38:48;;;;;;;52.90;37.30;;;;;;;8.30;80.83;98774.83;88896;1273;98647;-66
2021/11/28 09:41:04;;;;;;;47.80;36.20;;;;;;;8.55;80.26;98773.00;88943;1273;86638;-62
2021/11/28 09:43:15;;;;;;;44.00;33.30;;;;;;;8.81;79.75;98770.40;88881;1272;95492;-60
2021/11/28 09:45:26;;;;;;;48.40;35.20;;;;;;;8.89;79.29;98770.70;88894;1273;79381;-61
2021/11/28 09:47:38;;;;;;;48.00;34.00;;;;;;;9.18;78.95;98773.19;88872;1275;80499;-61
2021/11/28 09:49:49;;;;;;;43.90;33.00;;;;;;;9.49;78.47;98771.98;88926;1271;97932;-62
2021/11/28 09:52:05;;;;;;;40.30;32.30;;;;;;;9.75;78.13;98767.13;88910;1275;87697;-64
2021/11/28 09:54:19;;;;;;;38.50;32.00;;;;;;;9.76;77.69;98756.73;88906;1273;94837;-64
2021/11/28 09:56:34;;;;;;;39.50;31.60;;;;;;;9.96;77.30;98755.02;88860;1273;79582;-61
2021/11/28 09:58:45;;;;;;;36.70;29.50;;;;;;;10.11;76.90;98756.92;88857;1272;80986;-61
2021/11/28 10:00:56;;;;;;;40.60;31.70;;;;;;;10.38;76.40;98758.46;88869;1274;98945;-64
2021/11/28 10:03:06;;;;;;;39.40;30.00;;;;;;;10.52;75.65;98753.88;88909;1275;85857;-66
2021/11/28 10:05:18;;;;;;;38.70;30.40;;;;;;;10.63;75.39;98749.81;88885;1275;94381;-65
2021/11/28 10:07:28;;;;;;;38.30;29.10;;;;;;;10.68;75.04;98743.62;88878;1273;80661;-66
2021/11/28 10:09:38;;;;;;;46.80;34.60;;;;;;;10.51;74.05;98742.95;88877;1273;81817;-65
2021/11/28 10:12:20;;;;;;;39.30;32.20;;;;;;;9.95;73.68;98741.83;88878;1273;98894;-64